sensor_id;sensor_type;location;lat;lon;timestamp;pressure;altitude;pressure_sealevel;temperature;humidity
56042;BME280;48756;41.374;2.066;2022-12-18T00:03:50;101769.69;;;10.19;100.00
56042;BME280;48756;41.374;2.066;2022-12-18T00:06:16;101769.81;;;10.32;100.00
56042;BME280;48756;41.374;2.066;2022-12-18T00:08:42;101767.19;;;10.31;99.28
56042;BME280;48756;41.374;2.066;2022-12-18T00:11:09;101776.00;;;10.42;100.00
56042;BME280;48756;41.374;2.066;2022-12-18T00:13:35;101776.03;;;10.47;99.67
56042;BME280;48756;41.374;2.066;2022-12-18T00:16:04;101777.75;;;10.45;99.67
56042;BME280;48756;41.374;2.066;2022-12-18T00:18:30;101775.16;;;10.46;99.17
56042;BME280;48756;41.374;2.066;2022-12-18T00:20:58;101779.47;;;10.42;99.45
56042;BME280;48756;41.374;2.066;2022-12-18T00:23:23;101788.16;;;10.41;99.86
56042;BME280;48756;41.374;2.066;2022-12-18T00:25:49;101776.81;;;10.39;98.08
56042;BME280;48756;41.374;2.066;2022-12-18T00:28:14;101779.41;;;10.39;99.43
56042;BME280;48756;41.374;2.066;2022-12-18T00:30:39;101783.69;;;10.30;98.75
56042;BME280;48756;41.374;2.066;2022-12-18T00:33:05;101785.44;;;10.31;99.17
56042;BME280;48756;41.374;2.066;2022-12-18T00:35:31;101782.00;;;10.35;98.46
56042;BME280;48756;41.374;2.066;2022-12-18T00:37:56;101784.63;;;10.39;98.11
56042;BME280;48756;41.374;2.066;2022-12-18T00:40:22;101784.56;;;10.30;97.39
56042;BME280;48756;41.374;2.066;2022-12-18T00:42:47;101788.00;;;10.26;98.29
56042;BME280;48756;41.374;2.066;2022-12-18T00:45:22;101787.06;;;10.20;99.29
56042;BME280;48756;41.374;2.066;2022-12-18T00:47:53;101789.78;;;10.32;97.77
56042;BME280;48756;41.374;2.066;2022-12-18T00:50:19;101793.22;;;10.25;98.03
56042;BME280;48756;41.374;2.066;2022-12-18T00:52:45;101799.16;;;10.14;97.77
56042;BME280;48756;41.374;2.066;2022-12-18T00:55:10;101797.38;;;10.10;99.24
56042;BME280;48756;41.374;2.066;2022-12-18T00:57:36;101797.38;;;10.12;98.43
56042;BME280;48756;41.374;2.066;2022-12-18T01:00:02;101800.00;;;10.13;98.79
56042;BME280;48756;41.374;2.066;2022-12-18T01:02:27;101805.19;;;10.09;96.86
56042;BME280;48756;41.374;2.066;2022-12-18T01:04:53;101803.47;;;10.12;97.45
56042;BME280;48756;41.374;2.066;2022-12-18T01:07:18;101805.16;;;10.06;96.47
56042;BME280;48756;41.374;2.066;2022-12-18T01:09:43;101805.13;;;10.04;97.06
56042;BME280;48756;41.374;2.066;2022-12-18T01:12:09;101810.22;;;9.94;96.80
56042;BME280;48756;41.374;2.066;2022-12-18T01:14:34;101818.00;;;9.92;97.44
56042;BME280;48756;41.374;2.066;2022-12-18T01:16:59;101813.44;;;9.71;98.13
56042;BME280;48756;41.374;2.066;2022-12-18T01:19:27;101823.00;;;9.72;100.00
56042;BME280;48756;41.374;2.066;2022-12-18T01:21:52;101827.28;;;9.67;98.73
56042;BME280;48756;41.374;2.066;2022-12-18T01:24:18;101821.13;;;9.59;99.85
56042;BME280;48756;41.374;2.066;2022-12-18T01:26:43;101829.97;;;9.73;98.53
56042;BME280;48756;41.374;2.066;2022-12-18T01:29:08;101822.94;;;9.66;97.82
56042;BME280;48756;41.374;2.066;2022-12-18T01:31:34;101833.09;;;9.45;98.37
56042;BME280;48756;41.374;2.066;2022-12-18T01:34:03;101826.25;;;9.51;98.84
56042;BME280;48756;41.374;2.066;2022-12-18T01:36:32;101835.00;;;9.60;97.66
56042;BME280;48756;41.374;2.066;2022-12-18T01:38:59;101839.50;;;9.73;98.46
56042;BME280;48756;41.374;2.066;2022-12-18T01:41:27;101843.72;;;9.63;97.18
56042;BME280;48756;41.374;2.066;2022-12-18T01:47:00;101840.22;;;9.60;96.84
56042;BME280;48756;41.374;2.066;2022-12-18T01:49:25;101838.50;;;9.62;97.12
56042;BME280;48756;41.374;2.066;2022-12-18T01:51:50;101839.13;;;9.44;97.43
56042;BME280;48756;41.374;2.066;2022-12-18T01:54:16;101845.94;;;9.33;98.32
56042;BME280;48756;41.374;2.066;2022-12-18T01:56:42;101845.06;;;9.31;97.52
56042;BME280;48756;41.374;2.066;2022-12-18T01:59:07;101853.59;;;9.24;98.50
56042;BME280;48756;41.374;2.066;2022-12-18T02:01:35;101857.34;;;9.42;98.39
56042;BME280;48756;41.374;2.066;2022-12-18T02:06:45;101855.88;;;9.64;95.91
56042;BME280;48756;41.374;2.066;2022-12-18T02:09:16;101861.56;;;9.33;97.04
56042;BME280;48756;41.374;2.066;2022-12-18T02:11:53;101867.66;;;9.36;97.48
56042;BME280;48756;41.374;2.066;2022-12-18T02:14:24;101859.56;;;9.15;98.68
56042;BME280;48756;41.374;2.066;2022-12-18T02:27:41;101881.66;;;9.46;96.84
56042;BME280;48756;41.374;2.066;2022-12-18T02:30:09;101879.94;;;9.46;96.18
56042;BME280;48756;41.374;2.066;2022-12-18T02:32:39;101888.59;;;9.47;95.97
56042;BME280;48756;41.374;2.066;2022-12-18T02:35:06;101889.56;;;9.50;95.51
56042;BME280;48756;41.374;2.066;2022-12-18T02:37:33;101884.34;;;9.50;95.08
56042;BME280;48756;41.374;2.066;2022-12-18T02:39:59;101893.84;;;9.50;94.21
56042;BME280;48756;41.374;2.066;2022-12-18T02:42:25;101892.19;;;9.54;94.62
56042;BME280;48756;41.374;2.066;2022-12-18T02:44:51;101891.06;;;9.35;96.05
56042;BME280;48756;41.374;2.066;2022-12-18T02:47:20;101891.19;;;9.45;94.46
56042;BME280;48756;41.374;2.066;2022-12-18T02:52:27;101901.47;;;9.35;94.26
56042;BME280;48756;41.374;2.066;2022-12-18T02:59:58;101904.03;;;9.32;94.15
56042;BME280;48756;41.374;2.066;2022-12-18T03:02:29;101904.00;;;9.30;93.69
56042;BME280;48756;41.374;2.066;2022-12-18T03:07:25;101910.94;;;9.30;94.61
56042;BME280;48756;41.374;2.066;2022-12-18T03:09:51;101919.72;;;9.39;94.56
56042;BME280;48756;41.374;2.066;2022-12-18T03:12:20;101923.81;;;9.22;94.07
56042;BME280;48756;41.374;2.066;2022-12-18T03:14:48;101919.50;;;9.26;94.68
56042;BME280;48756;41.374;2.066;2022-12-18T03:17:16;101922.84;;;9.15;95.07
56042;BME280;48756;41.374;2.066;2022-12-18T03:19:44;101922.06;;;9.23;93.85
56042;BME280;48756;41.374;2.066;2022-12-18T03:22:11;101925.38;;;9.11;95.33
56042;BME280;48756;41.374;2.066;2022-12-18T03:24:36;101927.84;;;9.05;96.21
56042;BME280;48756;41.374;2.066;2022-12-18T03:27:05;101933.28;;;9.18;95.46
56042;BME280;48756;41.374;2.066;2022-12-18T03:32:00;101937.66;;;9.21;94.61
56042;BME280;48756;41.374;2.066;2022-12-18T03:34:32;101928.91;;;9.14;94.64
56042;BME280;48756;41.374;2.066;2022-12-18T03:36:58;101926.19;;;9.07;95.01
56042;BME280;48756;41.374;2.066;2022-12-18T03:39:28;101923.63;;;9.10;94.89
56042;BME280;48756;41.374;2.066;2022-12-18T03:44:42;101935.88;;;8.64;96.10
56042;BME280;48756;41.374;2.066;2022-12-18T03:49:47;101924.38;;;8.53;96.68
56042;BME280;48756;41.374;2.066;2022-12-18T03:52:29;101932.28;;;8.59;98.58
56042;BME280;48756;41.374;2.066;2022-12-18T03:54:56;101931.34;;;8.54;98.10
56042;BME280;48756;41.374;2.066;2022-12-18T03:57:24;101926.97;;;8.51;97.61
56042;BME280;48756;41.374;2.066;2022-12-18T04:00:12;101922.75;;;8.58;97.15
56042;BME280;48756;41.374;2.066;2022-12-18T04:02:37;101923.38;;;8.45;98.33
56042;BME280;48756;41.374;2.066;2022-12-18T04:05:03;101917.84;;;8.75;97.34
56042;BME280;48756;41.374;2.066;2022-12-18T04:07:30;101915.25;;;8.75;96.93
56042;BME280;48756;41.374;2.066;2022-12-18T04:09:56;101914.56;;;8.85;96.12
56042;BME280;48756;41.374;2.066;2022-12-18T04:12:26;101916.28;;;8.84;95.47
56042;BME280;48756;41.374;2.066;2022-12-18T04:14:53;101913.31;;;8.62;95.91
56042;BME280;48756;41.374;2.066;2022-12-18T04:17:19;101922.50;;;8.43;97.02
56042;BME280;48756;41.374;2.066;2022-12-18T04:19:44;101921.00;;;8.57;95.90
56042;BME280;48756;41.374;2.066;2022-12-18T04:22:10;101921.75;;;8.51;96.38
56042;BME280;48756;41.374;2.066;2022-12-18T04:24:35;101920.25;;;8.63;96.80
56042;BME280;48756;41.374;2.066;2022-12-18T04:27:01;101917.69;;;8.66;96.08
56042;BME280;48756;41.374;2.066;2022-12-18T04:29:26;101921.59;;;8.41;96.60
56042;BME280;48756;41.374;2.066;2022-12-18T04:31:52;101923.72;;;8.63;96.52
56042;BME280;48756;41.374;2.066;2022-12-18T04:34:17;101925.69;;;8.78;96.17
56042;BME280;48756;41.374;2.066;2022-12-18T04:36:43;101922.91;;;8.66;95.35
56042;BME280;48756;41.374;2.066;2022-12-18T04:39:08;101921.47;;;8.83;95.05
56042;BME280;48756;41.374;2.066;2022-12-18T04:41:33;101926.72;;;8.86;95.11
56042;BME280;48756;41.374;2.066;2022-12-18T04:43:59;101928.34;;;8.81;95.21
56042;BME280;48756;41.374;2.066;2022-12-18T04:46:24;101927.44;;;8.79;94.00
56042;BME280;48756;41.374;2.066;2022-12-18T04:48:49;101927.69;;;8.93;92.77
56042;BME280;48756;41.374;2.066;2022-12-18T04:51:15;101924.19;;;8.90;93.66
56042;BME280;48756;41.374;2.066;2022-12-18T04:53:40;101929.03;;;8.71;93.46
56042;BME280;48756;41.374;2.066;2022-12-18T04:56:06;101939.38;;;8.22;95.15
56042;BME280;48756;41.374;2.066;2022-12-18T04:58:32;101942.75;;;8.17;95.94
56042;BME280;48756;41.374;2.066;2022-12-18T05:00:57;101943.25;;;8.41;96.11
56042;BME280;48756;41.374;2.066;2022-12-18T05:03:23;101953.09;;;8.15;96.34
56042;BME280;48756;41.374;2.066;2022-12-18T05:05:51;101958.06;;;8.47;97.03
56042;BME280;48756;41.374;2.066;2022-12-18T05:08:17;101961.72;;;8.58;96.09
56042;BME280;48756;41.374;2.066;2022-12-18T05:10:43;101963.53;;;8.62;93.81
56042;BME280;48756;41.374;2.066;2022-12-18T05:13:08;101968.03;;;8.71;94.68
56042;BME280;48756;41.374;2.066;2022-12-18T05:15:34;101973.69;;;8.50;94.69
56042;BME280;48756;41.374;2.066;2022-12-18T05:17:59;101970.91;;;8.39;95.44
56042;BME280;48756;41.374;2.066;2022-12-18T05:20:25;101976.75;;;8.30;95.26
56042;BME280;48756;41.374;2.066;2022-12-18T05:22:51;101984.97;;;8.10;95.60
56042;BME280;48756;41.374;2.066;2022-12-18T05:25:17;101980.22;;;7.89;96.30
56042;BME280;48756;41.374;2.066;2022-12-18T05:27:43;101981.50;;;8.09;97.90
56042;BME280;48756;41.374;2.066;2022-12-18T05:30:08;101986.66;;;8.08;96.27
56042;BME280;48756;41.374;2.066;2022-12-18T05:32:34;101992.44;;;7.93;97.11
56042;BME280;48756;41.374;2.066;2022-12-18T05:34:59;101987.47;;;8.05;96.72
56042;BME280;48756;41.374;2.066;2022-12-18T05:37:25;101996.63;;;7.88;96.15
56042;BME280;48756;41.374;2.066;2022-12-18T05:39:50;101995.72;;;7.86;95.51
56042;BME280;48756;41.374;2.066;2022-12-18T05:42:15;102006.53;;;7.66;97.12
56042;BME280;48756;41.374;2.066;2022-12-18T05:44:44;101999.56;;;7.64;96.43
56042;BME280;48756;41.374;2.066;2022-12-18T05:47:09;102022.31;;;7.76;96.06
56042;BME280;48756;41.374;2.066;2022-12-18T05:49:35;102024.78;;;7.70;96.48
56042;BME280;48756;41.374;2.066;2022-12-18T05:52:00;102022.97;;;7.31;97.59
56042;BME280;48756;41.374;2.066;2022-12-18T05:54:28;102026.66;;;7.41;98.86
56042;BME280;48756;41.374;2.066;2022-12-18T05:56:54;102026.94;;;7.51;96.51
56042;BME280;48756;41.374;2.066;2022-12-18T05:59:19;102023.06;;;7.34;97.03
56042;BME280;48756;41.374;2.066;2022-12-18T06:01:45;102034.81;;;7.56;96.53
56042;BME280;48756;41.374;2.066;2022-12-18T06:04:10;102042.59;;;7.56;97.16
56042;BME280;48756;41.374;2.066;2022-12-18T06:06:36;102045.19;;;7.56;96.71
56042;BME280;48756;41.374;2.066;2022-12-18T06:09:02;102048.28;;;7.77;96.01
56042;BME280;48756;41.374;2.066;2022-12-18T06:11:33;102054.88;;;7.63;95.92
56042;BME280;48756;41.374;2.066;2022-12-18T06:13:58;102060.38;;;7.41;97.47
56042;BME280;48756;41.374;2.066;2022-12-18T06:16:24;102065.78;;;7.48;96.95
56042;BME280;48756;41.374;2.066;2022-12-18T06:18:49;102068.44;;;7.51;97.80
56042;BME280;48756;41.374;2.066;2022-12-18T06:21:15;102078.88;;;7.54;96.59
56042;BME280;48756;41.374;2.066;2022-12-18T06:23:40;102081.78;;;7.32;97.38
56042;BME280;48756;41.374;2.066;2022-12-18T06:26:06;102088.09;;;7.43;98.84
56042;BME280;48756;41.374;2.066;2022-12-18T06:28:32;102092.34;;;7.40;97.36
56042;BME280;48756;41.374;2.066;2022-12-18T06:30:57;102100.63;;;7.25;98.20
56042;BME280;48756;41.374;2.066;2022-12-18T06:33:25;102093.75;;;6.95;98.86
56042;BME280;48756;41.374;2.066;2022-12-18T06:35:51;102096.66;;;7.06;98.77
56042;BME280;48756;41.374;2.066;2022-12-18T06:38:16;102096.44;;;6.98;98.46
56042;BME280;48756;41.374;2.066;2022-12-18T06:40:41;102100.66;;;6.95;98.37
56042;BME280;48756;41.374;2.066;2022-12-18T06:43:07;102095.50;;;7.28;98.46
56042;BME280;48756;41.374;2.066;2022-12-18T06:45:32;102100.34;;;7.16;97.36
56042;BME280;48756;41.374;2.066;2022-12-18T06:47:58;102102.75;;;7.08;98.11
56042;BME280;48756;41.374;2.066;2022-12-18T06:50:23;102103.78;;;7.15;97.74
56042;BME280;48756;41.374;2.066;2022-12-18T06:52:49;102114.31;;;7.21;97.53
56042;BME280;48756;41.374;2.066;2022-12-18T06:55:14;102111.56;;;7.15;97.96
56042;BME280;48756;41.374;2.066;2022-12-18T06:57:40;102120.22;;;7.15;97.93
56042;BME280;48756;41.374;2.066;2022-12-18T07:00:05;102114.78;;;7.39;97.18
56042;BME280;48756;41.374;2.066;2022-12-18T07:02:31;102109.31;;;7.27;96.29
56042;BME280;48756;41.374;2.066;2022-12-18T07:04:57;102116.19;;;7.25;97.03
56042;BME280;48756;41.374;2.066;2022-12-18T07:07:22;102122.50;;;7.36;95.49
56042;BME280;48756;41.374;2.066;2022-12-18T07:09:49;102112.38;;;7.47;97.00
56042;BME280;48756;41.374;2.066;2022-12-18T07:12:14;102117.53;;;7.45;95.27
56042;BME280;48756;41.374;2.066;2022-12-18T07:14:40;102115.63;;;7.71;95.45
56042;BME280;48756;41.374;2.066;2022-12-18T07:17:05;102112.63;;;7.56;95.02
56042;BME280;48756;41.374;2.066;2022-12-18T07:19:30;102119.06;;;7.70;95.35
56042;BME280;48756;41.374;2.066;2022-12-18T07:21:56;102126.31;;;7.49;93.99
56042;BME280;48756;41.374;2.066;2022-12-18T07:24:21;102124.22;;;7.35;95.75
56042;BME280;48756;41.374;2.066;2022-12-18T07:26:46;102127.22;;;7.19;96.31
56042;BME280;48756;41.374;2.066;2022-12-18T07:29:12;102137.03;;;6.98;96.99
56042;BME280;48756;41.374;2.066;2022-12-18T07:31:38;102143.34;;;7.07;98.09
56042;BME280;48756;41.374;2.066;2022-12-18T07:34:03;102139.19;;;7.14;98.10
56042;BME280;48756;41.374;2.066;2022-12-18T07:36:28;102133.91;;;7.10;97.05
56042;BME280;48756;41.374;2.066;2022-12-18T07:38:54;102133.97;;;7.13;96.48
56042;BME280;48756;41.374;2.066;2022-12-18T07:41:20;102132.59;;;7.25;95.92
56042;BME280;48756;41.374;2.066;2022-12-18T07:43:45;102129.75;;;7.16;96.43
56042;BME280;48756;41.374;2.066;2022-12-18T07:46:11;102133.91;;;7.10;96.88
56042;BME280;48756;41.374;2.066;2022-12-18T07:48:38;102140.38;;;7.25;95.86
56042;BME280;48756;41.374;2.066;2022-12-18T07:51:05;102149.25;;;7.02;97.32
56042;BME280;48756;41.374;2.066;2022-12-18T07:53:31;102139.25;;;7.16;97.49
56042;BME280;48756;41.374;2.066;2022-12-18T07:55:57;102138.66;;;7.26;96.58
56042;BME280;48756;41.374;2.066;2022-12-18T07:58:23;102145.03;;;7.38;96.72
56042;BME280;48756;41.374;2.066;2022-12-18T08:00:48;102141.69;;;7.43;95.77
56042;BME280;48756;41.374;2.066;2022-12-18T08:03:13;102144.09;;;7.35;95.44
56042;BME280;48756;41.374;2.066;2022-12-18T08:05:39;102150.66;;;7.55;95.22
56042;BME280;48756;41.374;2.066;2022-12-18T08:08:04;102147.69;;;7.75;94.79
56042;BME280;48756;41.374;2.066;2022-12-18T08:10:29;102152.41;;;7.91;94.74
56042;BME280;48756;41.374;2.066;2022-12-18T08:12:55;102157.56;;;7.89;94.46
56042;BME280;48756;41.374;2.066;2022-12-18T08:15:20;102165.63;;;8.00;94.08
56042;BME280;48756;41.374;2.066;2022-12-18T08:17:45;102168.63;;;8.17;93.93
56042;BME280;48756;41.374;2.066;2022-12-18T08:20:11;102172.81;;;8.12;92.97
56042;BME280;48756;41.374;2.066;2022-12-18T08:22:39;102177.84;;;8.06;94.35
56042;BME280;48756;41.374;2.066;2022-12-18T08:25:05;102166.81;;;8.14;93.68
56042;BME280;48756;41.374;2.066;2022-12-18T08:27:30;102176.16;;;8.08;94.80
56042;BME280;48756;41.374;2.066;2022-12-18T08:29:56;102177.63;;;7.95;94.43
56042;BME280;48756;41.374;2.066;2022-12-18T08:32:21;102165.41;;;8.28;93.84
56042;BME280;48756;41.374;2.066;2022-12-18T08:34:46;102174.22;;;8.34;92.75
56042;BME280;48756;41.374;2.066;2022-12-18T08:37:12;102173.84;;;8.18;94.11
56042;BME280;48756;41.374;2.066;2022-12-18T08:39:37;102172.34;;;8.29;93.88
56042;BME280;48756;41.374;2.066;2022-12-18T08:42:03;102179.41;;;8.34;93.43
56042;BME280;48756;41.374;2.066;2022-12-18T08:44:46;102184.19;;;8.53;93.22
56042;BME280;48756;41.374;2.066;2022-12-18T08:47:12;102187.69;;;8.55;92.77
56042;BME280;48756;41.374;2.066;2022-12-18T08:49:37;102198.72;;;8.45;93.11
56042;BME280;48756;41.374;2.066;2022-12-18T08:52:03;102193.94;;;8.63;92.82
56042;BME280;48756;41.374;2.066;2022-12-18T08:54:28;102202.06;;;8.80;92.53
56042;BME280;48756;41.374;2.066;2022-12-18T08:56:54;102210.47;;;9.07;90.86
56042;BME280;48756;41.374;2.066;2022-12-18T08:59:19;102204.97;;;8.94;91.99
56042;BME280;48756;41.374;2.066;2022-12-18T09:01:45;102209.66;;;9.10;90.31
56042;BME280;48756;41.374;2.066;2022-12-18T09:04:11;102215.09;;;9.22;90.43
56042;BME280;48756;41.374;2.066;2022-12-18T09:06:36;102216.25;;;9.36;89.14
56042;BME280;48756;41.374;2.066;2022-12-18T09:09:02;102211.31;;;9.06;91.43
56042;BME280;48756;41.374;2.066;2022-12-18T09:11:28;102211.00;;;9.35;90.06
56042;BME280;48756;41.374;2.066;2022-12-18T09:13:54;102211.56;;;9.65;88.62
56042;BME280;48756;41.374;2.066;2022-12-18T09:16:20;102210.75;;;9.69;88.09
56042;BME280;48756;41.374;2.066;2022-12-18T09:18:45;102222.72;;;9.58;89.17
56042;BME280;48756;41.374;2.066;2022-12-18T09:21:12;102222.88;;;9.67;88.75
56042;BME280;48756;41.374;2.066;2022-12-18T09:23:38;102223.16;;;9.82;88.70
56042;BME280;48756;41.374;2.066;2022-12-18T09:26:04;102228.56;;;9.95;88.17
56042;BME280;48756;41.374;2.066;2022-12-18T09:28:29;102227.47;;;9.80;88.61
56042;BME280;48756;41.374;2.066;2022-12-18T09:30:55;102226.44;;;9.72;89.07
56042;BME280;48756;41.374;2.066;2022-12-18T09:33:20;102226.63;;;9.83;88.23
56042;BME280;48756;41.374;2.066;2022-12-18T09:35:45;102238.19;;;9.97;88.09
56042;BME280;48756;41.374;2.066;2022-12-18T09:38:12;102244.13;;;9.92;88.47
56042;BME280;48756;41.374;2.066;2022-12-18T09:43:31;102237.03;;;10.33;86.87
56042;BME280;48756;41.374;2.066;2022-12-18T09:46:01;102244.56;;;10.18;87.18
56042;BME280;48756;41.374;2.066;2022-12-18T09:48:29;102240.59;;;10.38;85.76
56042;BME280;48756;41.374;2.066;2022-12-18T09:50:57;102238.25;;;10.55;85.25
56042;BME280;48756;41.374;2.066;2022-12-18T09:53:24;102240.09;;;10.63;85.27
56042;BME280;48756;41.374;2.066;2022-12-18T09:55:51;102242.03;;;10.77;85.78
56042;BME280;48756;41.374;2.066;2022-12-18T09:58:26;102240.41;;;10.85;85.15
56042;BME280;48756;41.374;2.066;2022-12-18T10:00:53;102240.47;;;10.89;84.26
56042;BME280;48756;41.374;2.066;2022-12-18T10:03:19;102245.16;;;11.15;83.58
56042;BME280;48756;41.374;2.066;2022-12-18T10:08:34;102248.63;;;11.15;83.54
56042;BME280;48756;41.374;2.066;2022-12-18T10:11:03;102252.16;;;11.20;82.66
56042;BME280;48756;41.374;2.066;2022-12-18T10:13:57;102252.19;;;11.23;82.50
56042;BME280;48756;41.374;2.066;2022-12-18T10:26:38;102254.28;;;11.53;81.46
56042;BME280;48756;41.374;2.066;2022-12-18T10:29:08;102252.66;;;11.63;81.62
56042;BME280;48756;41.374;2.066;2022-12-18T10:31:35;102257.03;;;11.65;80.88
56042;BME280;48756;41.374;2.066;2022-12-18T10:34:00;102249.22;;;11.69;81.82
56042;BME280;48756;41.374;2.066;2022-12-18T10:36:26;102251.19;;;11.88;80.83
56042;BME280;48756;41.374;2.066;2022-12-18T10:38:51;102256.31;;;11.77;80.42
56042;BME280;48756;41.374;2.066;2022-12-18T10:43:42;102246.91;;;11.98;78.80
56042;BME280;48756;41.374;2.066;2022-12-18T10:48:34;102237.50;;;12.18;78.62
56042;BME280;48756;41.374;2.066;2022-12-18T10:51:01;102245.47;;;12.29;77.78
56042;BME280;48756;41.374;2.066;2022-12-18T10:53:28;102235.72;;;12.11;78.21
56042;BME280;48756;41.374;2.066;2022-12-18T10:55:55;102235.03;;;12.32;77.54
56042;BME280;48756;41.374;2.066;2022-12-18T10:58:26;102221.19;;;12.48;78.08
56042;BME280;48756;41.374;2.066;2022-12-18T11:03:39;102221.22;;;12.54;76.92
56042;BME280;48756;41.374;2.066;2022-12-18T11:08:31;102228.34;;;12.76;76.13
56042;BME280;48756;41.374;2.066;2022-12-18T11:10:56;102234.47;;;12.81;75.68
56042;BME280;48756;41.374;2.066;2022-12-18T11:13:23;102224.84;;;12.77;76.51
56042;BME280;48756;41.374;2.066;2022-12-18T11:15:49;102227.56;;;12.91;76.41
56042;BME280;48756;41.374;2.066;2022-12-18T11:20:50;102232.00;;;13.15;76.11
56042;BME280;48756;41.374;2.066;2022-12-18T11:23:16;102224.16;;;13.15;75.45
56042;BME280;48756;41.374;2.066;2022-12-18T11:25:50;102219.84;;;13.20;75.42
56042;BME280;48756;41.374;2.066;2022-12-18T11:28:36;102206.75;;;13.26;74.29
56042;BME280;48756;41.374;2.066;2022-12-18T11:33:41;102202.47;;;13.54;73.96
56042;BME280;48756;41.374;2.066;2022-12-18T11:36:08;102204.19;;;13.49;74.36
56042;BME280;48756;41.374;2.066;2022-12-18T11:38:37;102209.44;;;13.47;73.57
56042;BME280;48756;41.374;2.066;2022-12-18T11:41:16;102212.06;;;13.49;73.45
56042;BME280;48756;41.374;2.066;2022-12-18T11:43:59;102202.50;;;13.59;74.29
56042;BME280;48756;41.374;2.066;2022-12-18T11:46:38;102210.34;;;13.71;73.72
56042;BME280;48756;41.374;2.066;2022-12-18T11:49:20;102198.16;;;13.82;74.21
56042;BME280;48756;41.374;2.066;2022-12-18T11:54:16;102184.16;;;14.10;71.79
56042;BME280;48756;41.374;2.066;2022-12-18T11:56:44;102185.03;;;14.00;72.32
56042;BME280;48756;41.374;2.066;2022-12-18T11:59:21;102181.53;;;14.20;72.26
56042;BME280;48756;41.374;2.066;2022-12-18T12:02:09;102183.25;;;14.34;71.32
56042;BME280;48756;41.374;2.066;2022-12-18T12:07:27;102185.00;;;14.51;71.01
56042;BME280;48756;41.374;2.066;2022-12-18T12:20:20;102180.63;;;14.24;72.83
56042;BME280;48756;41.374;2.066;2022-12-18T12:23:01;102178.88;;;14.50;73.31
56042;BME280;48756;41.374;2.066;2022-12-18T12:28:32;102173.53;;;14.81;73.27
56042;BME280;48756;41.374;2.066;2022-12-18T12:36:28;102165.63;;;14.87;72.79
56042;BME280;48756;41.374;2.066;2022-12-18T12:38:57;102164.63;;;15.12;72.50
56042;BME280;48756;41.374;2.066;2022-12-18T12:41:27;102158.50;;;15.13;73.30
56042;BME280;48756;41.374;2.066;2022-12-18T12:44:18;102161.25;;;14.87;73.65
56042;BME280;48756;41.374;2.066;2022-12-18T12:46:45;102162.09;;;14.91;72.91
56042;BME280;48756;41.374;2.066;2022-12-18T12:49:13;102163.94;;;14.78;72.36
56042;BME280;48756;41.374;2.066;2022-12-18T12:51:41;102170.06;;;14.69;74.48
56042;BME280;48756;41.374;2.066;2022-12-18T12:54:16;102160.50;;;14.55;75.20
56042;BME280;48756;41.374;2.066;2022-12-18T12:56:48;102164.00;;;14.40;75.47
56042;BME280;48756;41.374;2.066;2022-12-18T13:09:10;102147.34;;;14.73;74.92
56042;BME280;48756;41.374;2.066;2022-12-18T13:11:40;102149.94;;;14.68;74.87
56042;BME280;48756;41.374;2.066;2022-12-18T13:14:26;102151.78;;;14.39;77.01
56042;BME280;48756;41.374;2.066;2022-12-18T13:17:13;102141.28;;;14.48;76.08
56042;BME280;48756;41.374;2.066;2022-12-18T13:19:38;102142.09;;;14.64;75.41
56042;BME280;48756;41.374;2.066;2022-12-18T13:22:03;102144.69;;;14.75;76.07
56042;BME280;48756;41.374;2.066;2022-12-18T13:24:30;102133.34;;;14.73;77.06
56042;BME280;48756;41.374;2.066;2022-12-18T13:26:56;102135.91;;;14.82;75.74
56042;BME280;48756;41.374;2.066;2022-12-18T13:29:43;102129.78;;;14.84;76.52
56042;BME280;48756;41.374;2.066;2022-12-18T13:32:18;102132.44;;;14.80;77.56
56042;BME280;48756;41.374;2.066;2022-12-18T13:34:44;102132.41;;;14.81;79.26
56042;BME280;48756;41.374;2.066;2022-12-18T13:39:53;102131.44;;;15.04;78.45
56042;BME280;48756;41.374;2.066;2022-12-18T13:47:53;102131.50;;;14.94;82.00
56042;BME280;48756;41.374;2.066;2022-12-18T13:50:24;102130.50;;;15.12;82.21
56042;BME280;48756;41.374;2.066;2022-12-18T13:52:50;102128.72;;;15.17;81.18
56042;BME280;48756;41.374;2.066;2022-12-18T13:55:16;102127.91;;;15.05;82.20
56042;BME280;48756;41.374;2.066;2022-12-18T13:57:43;102122.69;;;15.03;83.16
56042;BME280;48756;41.374;2.066;2022-12-18T14:00:28;102121.75;;;15.09;83.22
56042;BME280;48756;41.374;2.066;2022-12-18T14:02:53;102123.47;;;15.14;83.27
56042;BME280;48756;41.374;2.066;2022-12-18T14:07:47;102125.22;;;15.15;85.82
56042;BME280;48756;41.374;2.066;2022-12-18T14:10:13;102122.63;;;15.12;84.65
56042;BME280;48756;41.374;2.066;2022-12-18T14:12:40;102119.19;;;15.02;85.15
56042;BME280;48756;41.374;2.066;2022-12-18T14:20:44;102125.22;;;15.15;84.32
56042;BME280;48756;41.374;2.066;2022-12-18T14:25:53;102126.09;;;15.14;85.50
56042;BME280;48756;41.374;2.066;2022-12-18T14:28:19;102127.06;;;15.02;87.00
56042;BME280;48756;41.374;2.066;2022-12-18T14:30:46;102122.63;;;15.12;86.10
56042;BME280;48756;41.374;2.066;2022-12-18T14:35:41;102121.78;;;15.07;86.56
56042;BME280;48756;41.374;2.066;2022-12-18T14:40:41;102123.53;;;15.07;86.23
56042;BME280;48756;41.374;2.066;2022-12-18T14:43:09;102131.41;;;15.07;86.44
56042;BME280;48756;41.374;2.066;2022-12-18T14:45:35;102124.34;;;15.15;86.98
56042;BME280;48756;41.374;2.066;2022-12-18T14:48:48;102124.34;;;15.18;86.29
56042;BME280;48756;41.374;2.066;2022-12-18T14:51:01;102119.94;;;15.23;85.82
56042;BME280;48756;41.374;2.066;2022-12-18T14:56:15;102115.69;;;15.00;86.26
56042;BME280;48756;41.374;2.066;2022-12-18T14:58:45;102130.59;;;14.98;87.26
56042;BME280;48756;41.374;2.066;2022-12-18T15:01:17;102128.84;;;14.91;87.17
56042;BME280;48756;41.374;2.066;2022-12-18T15:03:43;102127.97;;;14.91;86.69
56042;BME280;48756;41.374;2.066;2022-12-18T15:09:05;102125.44;;;14.79;87.47